Data for 03/06/2007

Time Sea-Level Adjusted Pressure Absolute Pressure Temperature Relative Humidity Dew Point   
(mb) (inHg) (mb) (inHg) (C) (F) (%) (C) (F)
00:05 1022 30.18 852 25.16 4.1 39.5 67 -1.4 29.5
00:10 1022 30.18 852 25.16 4.1 39.3 68 -1.3 29.6
00:15 1022 30.18 852 25.16 3.8 38.8 68 -1.6 29.1
00:20 1022 30.18 852 25.16 4.1 39.3 66 -1.8 28.8
00:25 1022 30.18 852 25.16 4.3 39.8 64 -1.8 28.7
00:30 1022 30.18 852 25.16 4.4 39.9 64 -1.7 28.9
00:35 1022 30.18 852 25.16 4.5 40.1 62 -2.2 28
00:40 1022 30.18 852 25.16 4.7 40.4 60 -2.4 27.7
00:45 1022 30.18 852 25.16 4.9 40.8 60 -2.1 28.1
00:50 1022 30.18 852 25.16 4.6 40.4 59 -2.7 27.2
00:55 1022 30.18 852 25.16 4.9 40.7 59 -2.5 27.5
01:00 1022 30.18 852 25.16 4.5 40.1 65 -1.6 29.2
01:05 1022 30.18 852 25.16 4.6 40.2 62 -2 28.4
01:10 1022 30.18 852 25.16 4.6 40.3 62 -2 28.5
01:15 1022 30.18 852 25.16 4.4 40 64 -1.8 28.7
01:20 1022 30.18 852 25.16 4.2 39.6 64 -1.9 28.6
01:25 1022 30.18 852 25.16 4 39.2 65 -1.9 28.6
01:30 1022 30.18 852 25.16 3.8 38.9 66 -2 28.4
01:35 1022 30.18 852 25.16 3.8 38.8 66 -2 28.4
01:40 1022 30.18 852 25.16 3.9 39 64 -2.3 27.9
01:45 1022 30.18 852 25.16 4 39.1 66 -1.9 28.6
01:50 1022 30.18 852 25.16 4 39.1 64 -2.3 27.8
01:55 1022 30.18 852 25.16 4.2 39.6 64 -2 28.5
02:00 1022 30.18 852 25.16 4 39.2 65 -1.9 28.5
02:05 1022 30.18 852 25.16 3.7 38.7 66 -1.9 28.5
02:10 1022 30.18 852 25.16 3.8 38.9 62 -2.7 27.1
02:15 1022 30.18 852 25.16 4.1 39.4 64 -2.1 28.2
02:20 1022 30.18 852 25.16 3.7 38.6 67 -2 28.5
02:25 1022 30.18 852 25.16 3.2 37.7 69 -1.9 28.6
02:30 1022 30.18 852 25.16 2.7 36.8 72 -1.9 28.5
02:35 1022 30.18 852 25.16 2.5 36.6 71 -2.2 28.1
02:40 1022 30.18 852 25.16 2.6 36.7 71 -2.2 28.1
02:45 1022 30.18 852 25.16 2.8 37 70 -2.1 28.2
02:50 1022 30.18 852 25.16 2.7 36.8 72 -2 28.5
02:55 1022 30.18 852 25.16 2.4 36.4 72 -2.2 28
03:00 1022 30.18 852 25.16 2.2 36 72 -2.3 27.8
03:05 1022 30.18 852 25.16 2.3 36.1 71 -2.4 27.6
03:10 1022 30.18 852 25.16 2.6 36.8 69 -2.4 27.7
03:15 1022 30.18 852 25.16 2.9 37.3 68 -2.3 27.8
03:20 1022 30.18 852 25.16 3.2 37.7 66 -2.5 27.6
03:25 1023 30.21 852 25.16 3.3 38 65 -2.5 27.5
03:30 1023 30.21 852 25.16 3.5 38.3 64 -2.7 27.2
03:35 1023 30.21 852 25.16 3.6 38.4 65 -2.4 27.7
03:40 1023 30.21 852 25.16 3.2 37.7 67 -2.3 27.8
03:45 1023 30.21 852 25.16 3 37.4 67 -2.6 27.4
03:50 1023 30.21 852 25.16 3.2 37.7 66 -2.7 27.2
03:55 1023 30.21 852 25.16 3.2 37.7 65 -2.8 27
04:00 1023 30.21 852 25.16 3.1 37.5 67 -2.4 27.6
04:05 1023 30.21 852 25.16 3 37.4 66 -2.6 27.3
04:10 1023 30.21 852 25.16 2.9 37.2 67 -2.7 27.2
04:15 1023 30.21 852 25.16 2.9 37.1 65 -3 26.6
04:20 1023 30.21 852 25.16 3 37.4 64 -3.2 26.3
04:25 1023 30.21 852 25.16 3.5 38.3 61 -3.3 26
04:30 1023 30.21 852 25.16 3.6 38.5 62 -3 26.6
04:35 1023 30.21 852 25.16 3.3 37.9 61 -3.5 25.7
04:40 1023 30.21 852 25.16 3.3 38 63 -3 26.5
04:45 1023 30.21 852 25.16 2.7 36.8 66 -3.1 26.5
04:50 1023 30.21 852 25.16 2.5 36.4 67 -3 26.7
04:55 1023 30.21 852 25.16 2.1 35.8 68 -3.1 26.4
05:00 1023 30.21 852 25.16 2.3 36.1 67 -3.2 26.3
05:05 1023 30.21 852 25.16 2.4 36.4 67 -3 26.7
05:10 1023 30.21 852 25.16 2.4 36.2 67 -3.2 26.2
05:15 1023 30.21 852 25.16 2.3 36.2 68 -3 26.7
05:20 1023 30.21 852 25.16 1.8 35.3 71 -2.9 26.9
05:25 1023 30.21 852 25.16 1.3 34.4 72 -3.1 26.4
05:30 1023 30.21 852 25.16 1.4 34.6 72 -3 26.5
05:35 1023 30.21 852 25.16 1.3 34.4 73 -3.1 26.5
05:40 1023 30.21 852 25.16 1.3 34.3 73 -3.1 26.4
05:45 1023 30.21 852 25.16 1.4 34.4 72 -3.1 26.5
05:50 1023 30.21 852 25.16 1.5 34.7 72 -3.1 26.5
05:55 1023 30.21 853 25.19 1.3 34.4 73 -3 26.5
06:00 1023 30.21 853 25.19 0.9 33.7 75 -3.1 26.4
06:05 1023 30.21 853 25.19 1 33.8 74 -3.1 26.3
06:10 1023 30.21 853 25.19 1 33.8 74 -3.2 26.3
06:15 1023 30.21 853 25.19 1.2 34.1 73 -3.1 26.3
06:20 1023 30.21 853 25.19 1.5 34.6 72 -3 26.6
06:25 1023 30.21 853 25.19 1.6 34.8 72 -2.9 26.7
06:30 1023 30.21 853 25.19 1.8 35.3 71 -3 26.7
06:35 1023 30.21 853 25.19 2 35.5 71 -2.8 26.9
06:40 1024 30.24 853 25.19 2.2 36 69 -2.9 26.8
06:45 1024 30.24 853 25.19 2.3 36.2 69 -2.8 26.9
06:50 1024 30.24 853 25.19 2.4 36.4 69 -2.7 27.2
06:55 1024 30.24 853 25.19 2.2 36 70 -2.7 27.1
07:00 1024 30.24 853 25.19 1.9 35.4 71 -2.8 26.9
07:05 1024 30.24 853 25.19 1.7 35.1 72 -2.9 26.9
07:10 1024 30.24 853 25.19 1.9 35.4 71 -2.8 26.9
07:15 1024 30.24 853 25.19 2.1 35.8 70 -2.9 26.9
07:20 1024 30.24 853 25.19 2.4 36.3 68 -3 26.6
07:25 1024 30.24 853 25.19 2.6 36.7 67 -2.8 26.9
07:30 1024 30.24 853 25.19 2.9 37.2 67 -2.6 27.3
07:35 1024 30.24 853 25.19 3.3 37.9 67 -2.3 27.8
07:40 1024 30.24 853 25.19 3.4 38.1 67 -2.2 28.1
07:45 1024 30.24 853 25.19 3.3 38 67 -2.2 28
07:50 1024 30.24 853 25.19 2.8 37 70 -2.2 28.1
07:55 1024 30.24 853 25.19 2.6 36.7 70 -2.3 27.8
08:00 1024 30.24 853 25.19 2.9 37.2 68 -2.4 27.7
08:05 1024 30.24 853 25.19 3.4 38 67 -2.3 27.9
08:10 1024 30.24 853 25.19 3.8 38.8 64 -2.3 27.8
08:15 1024 30.24 853 25.19 4 39.2 64 -2.2 28
08:20 1024 30.24 853 25.19 4.1 39.4 63 -2.3 27.9
08:25 1024 30.24 853 25.19 4.5 40.1 62 -2.2 28
08:30 1024 30.24 853 25.19 5 41 60 -2.1 28.2
08:35 1024 30.24 853 25.19 5.7 42.3 57 -2 28.3
08:40 1024 30.24 853 25.19 6.4 43.5 55 -2 28.4
08:45 1024 30.24 853 25.19 7.4 45.2 52 -1.9 28.6
08:50 1024 30.24 853 25.19 7.6 45.6 51 -2 28.4
08:55 1024 30.24 853 25.19 8 46.5 49 -2.1 28.3
09:00 1024 30.24 853 25.19 8.6 47.4 49 -1.7 29
09:05 1024 30.24 853 25.19 8.7 47.7 46 -2.1 28.2
09:10 1024 30.24 853 25.19 8.7 47.6 49 -1.5 29.4
09:15 1024 30.24 853 25.19 8.5 47.3 49 -1.5 29.4
09:20 1024 30.24 853 25.19 8.2 46.8 50 -1.6 29.2
09:25 1024 30.24 853 25.19 8.2 46.8 50 -1.7 29
09:30 1024 30.24 853 25.19 8 46.5 50 -1.7 29
09:35 1024 30.24 853 25.19 8 46.3 50 -1.8 28.7
09:40 1024 30.24 853 25.19 8.4 47 48 -2.1 28.3
09:45 1024 30.24 853 25.19 8.8 47.8 47 -1.8 28.8
09:50 1024 30.24 853 25.19 8.7 47.7 47 -2.1 28.3
09:55 1024 30.24 853 25.19 8.7 47.6 47 -2 28.3
10:00 1024 30.24 853 25.19 8.9 47.9 46 -2 28.5
10:05 1024 30.24 853 25.19 9.4 48.9 45 -2 28.3
10:10 1024 30.24 854 25.22 9.8 49.7 44 -1.8 28.8
10:15 1024 30.24 854 25.22 9.8 49.6 44 -1.9 28.6
10:20 1024 30.24 854 25.22 10.2 50.4 42 -2.2 28
10:25 1024 30.24 854 25.22 9.9 49.9 42 -2.3 27.8
10:30 1024 30.24 854 25.22 10.3 50.5 42 -2.1 28.2
10:35 1024 30.24 854 25.22 10.4 50.6 43 -1.7 29
10:40 1024 30.24 854 25.22 10.7 51.2 42 -1.8 28.8
10:45 1024 30.24 854 25.22 10.3 50.5 43 -1.7 28.9
10:50 1024 30.24 854 25.22 10.2 50.3 42 -2.1 28.2
10:55 1024 30.24 854 25.22 10 50.1 44 -1.7 28.9
11:00 1024 30.24 854 25.22 9.9 49.8 43 -2.2 28
11:05 1025 30.27 854 25.22 10.4 50.8 41 -2.3 27.9
11:10 1025 30.27 854 25.22 10.6 51.1 40 -2.2 28
11:15 1025 30.27 854 25.22 10.2 50.4 43 -1.9 28.6
11:20 1024 30.24 854 25.22 10.6 51 42 -1.9 28.6
11:25 1024 30.24 854 25.22 10.7 51.2 40 -2.2 28.1
11:30 1024 30.24 854 25.22 9.9 49.9 44 -1.6 29.1
11:35 1024 30.24 854 25.22 10.1 50.1 43 -2 28.4
11:40 1024 30.24 854 25.22 10.6 51 42 -1.8 28.8
11:45 1024 30.24 853 25.19 10.5 51 42 -1.9 28.6
11:50 1024 30.24 853 25.19 10.5 50.9 41 -2.1 28.2
11:55 1024 30.24 853 25.19 10.3 50.6 42 -2.1 28.3
12:00 1024 30.24 853 25.19 11 51.8 39 -2.5 27.6
12:05 1024 30.24 853 25.19 11.4 52.4 39 -2.2 28.1
12:10 1024 30.24 853 25.19 11.4 52.5 39 -2.1 28.2
12:15 1024 30.24 853 25.19 10.8 51.4 42 -1.6 29.1
12:20 1024 30.24 853 25.19 10.2 50.4 41 -2.4 27.6
12:25 1024 30.24 853 25.19 10.9 51.7 41 -1.9 28.6
12:30 1024 30.24 853 25.19 11.7 53 38 -2.2 28.1
12:35 1024 30.24 853 25.19 12.1 53.8 38 -1.6 29.1
12:40 1024 30.24 853 25.19 12.3 54.2 36 -2.2 28
12:45 1024 30.24 853 25.19 12.5 54.5 35 -2.4 27.8
12:50 1024 30.24 853 25.19 11.5 52.8 39 -2.1 28.3
12:55 1024 30.24 853 25.19 10.9 51.6 39 -2.6 27.3
13:00 1024 30.24 853 25.19 10.7 51.2 43 -1.4 29.5
13:05 1024 30.24 853 25.19 10.7 51.3 40 -2.3 27.9
13:10 1023 30.21 853 25.19 11.5 52.8 36 -3 26.6
13:15 1023 30.21 853 25.19 11.7 53 37 -2.4 27.7
13:20 1023 30.21 853 25.19 11.4 52.5 37 -2.6 27.3
13:25 1023 30.21 853 25.19 11.8 53.3 38 -1.9 28.6
13:30 1023 30.21 852 25.16 12.5 54.5 35 -2.7 27.2
13:35 1023 30.21 852 25.16 11.8 53.2 41 -1.1 30
13:40 1023 30.21 852 25.16 11.6 52.9 39 -1.9 28.5
13:45 1023 30.21 852 25.16 11.6 52.8 40 -1.6 29.1
13:50 1023 30.21 852 25.16 11.7 53 41 -0.9 30.3
13:55 1023 30.21 852 25.16 11.3 52.3 40 -1.8 28.8
14:00 1023 30.21 852 25.16 9.7 49.5 42 -2.6 27.3
14:05 1023 30.21 852 25.16 9.2 48.5 45 -2.1 28.1
14:10 1023 30.21 852 25.16 10.2 50.4 40 -2.8 27
14:15 1023 30.21 852 25.16 10.8 51.5 41 -1.8 28.8
14:20 1023 30.21 852 25.16 11.8 53.2 36 -2.7 27.2
14:25 1023 30.21 852 25.16 11.9 53.5 37 -2.3 27.8
14:30 1023 30.21 852 25.16 12.4 54.3 34 -3.1 26.5
14:35 1023 30.21 852 25.16 12.7 54.8 34 -2.6 27.3
14:40 1023 30.21 852 25.16 11.9 53.3 36 -2.6 27.3
14:45 1023 30.21 852 25.16 12.5 54.6 34 -2.8 26.9
14:50 1023 30.21 852 25.16 12.7 54.9 35 -2.3 27.9
14:55 1023 30.21 852 25.16 11.5 52.7 40 -1.7 28.9
15:00 1023 30.21 852 25.16 10.7 51.2 42 -1.6 29.1
15:05 1023 30.21 852 25.16 9.9 49.8 43 -2 28.4
15:10 1023 30.21 852 25.16 9.6 49.2 44 -2.1 28.3
15:15 1023 30.21 852 25.16 9.5 49.1 44 -2.2 28.1
15:20 1023 30.21 852 25.16 9.7 49.5 43 -2.4 27.8
15:25 1023 30.21 852 25.16 9.8 49.7 43 -2 28.3
15:30 1023 30.21 852 25.16 10.2 50.4 40 -2.8 26.9
15:35 1023 30.21 852 25.16 10.9 51.5 41 -1.9 28.5
15:40 1023 30.21 852 25.16 10.8 51.4 40 -2.4 27.7
15:45 1023 30.21 852 25.16 10.3 50.5 42 -1.9 28.5
15:50 1022 30.18 852 25.16 9.7 49.5 42 -2.4 27.6
15:55 1022 30.18 852 25.16 10 50 41 -2.6 27.3
16:00 1022 30.18 852 25.16 10.3 50.5 41 -2.2 28
16:05 1023 30.21 852 25.16 10.6 51 39 -2.6 27.3
16:10 1023 30.21 852 25.16 10.3 50.6 41 -2.4 27.7
16:15 1022 30.18 852 25.16 10.5 50.9 39 -3 26.7
16:20 1022 30.18 852 25.16 11.2 52.2 38 -2.6 27.4
16:25 1022 30.18 852 25.16 11.1 52 37 -3.1 26.5
16:30 1022 30.18 852 25.16 11.4 52.6 37 -2.7 27.1
16:35 1022 30.18 852 25.16 11.7 53.1 35 -3.1 26.5
16:40 1022 30.18 852 25.16 11.2 52.1 38 -2.6 27.4
16:45 1022 30.18 852 25.16 11.3 52.4 37 -2.8 27
16:50 1022 30.18 852 25.16 10.8 51.4 38 -2.8 27
16:55 1022 30.18 852 25.16 10.8 51.4 39 -2.7 27.2
17:00 1022 30.18 851 25.13 10.4 50.8 39 -2.8 27
17:05 1022 30.18 851 25.13 10.7 51.3 38 -3 26.5
17:10 1022 30.18 851 25.13 10.9 51.6 37 -3 26.6
17:15 1022 30.18 851 25.13 10.4 50.8 40 -2.6 27.3
17:20 1022 30.18 851 25.13 10.5 50.8 39 -3 26.7
17:25 1022 30.18 851 25.13 10.2 50.3 39 -3.3 26.1
17:30 1022 30.18 851 25.13 10.2 50.3 39 -3.2 26.2
17:35 1022 30.18 851 25.13 9.9 49.8 40 -3.1 26.4
17:40 1022 30.18 851 25.13 10 49.9 39 -3.3 26.1
17:45 1022 30.18 851 25.13 10.2 50.4 39 -2.9 26.7
17:50 1022 30.18 851 25.13 9.7 49.5 41 -3 26.6
17:55 1022 30.18 851 25.13 9.6 49.3 42 -2.7 27.1
18:00 1022 30.18 851 25.13 9.6 49.3 42 -2.8 27
18:05 1022 30.18 851 25.13 9.6 49.2 42 -2.6 27.2
18:10 1022 30.18 851 25.13 9.2 48.6 46 -1.9 28.6
18:15 1022 30.18 851 25.13 8.4 47 49 -1.7 28.9
18:20 1022 30.18 851 25.13 7.6 45.7 52 -1.7 28.9
18:25 1022 30.18 851 25.13 7.3 45.2 53 -1.7 29
18:30 1022 30.18 851 25.13 7 44.5 54 -1.7 28.9
18:35 1022 30.18 851 25.13 6.5 43.7 56 -1.7 29
18:40 1022 30.18 851 25.13 6.3 43.4 56 -1.7 28.9
18:45 1022 30.18 851 25.13 6 42.8 57 -1.8 28.7
18:50 1022 30.18 851 25.13 5.8 42.4 58 -1.9 28.5
18:55 1022 30.18 851 25.13 5.8 42.4 57 -2 28.3
19:00 1022 30.18 851 25.13 5.8 42.4 57 -2 28.4
19:05 1022 30.18 851 25.13 5.6 42.1 58 -2 28.3
19:10 1022 30.18 851 25.13 5.5 41.9 58 -2.1 28.3
19:15 1022 30.18 851 25.13 5.4 41.7 59 -1.9 28.6
19:20 1022 30.18 851 25.13 5 41 60 -2 28.3
19:25 1022 30.18 851 25.13 4.7 40.5 62 -2 28.4
19:30 1022 30.18 851 25.13 4.9 40.8 60 -2.3 27.9
19:35 1022 30.18 851 25.13 5.1 41.2 59 -2.2 28
19:40 1022 30.18 851 25.13 4.9 40.9 61 -2 28.4
19:45 1022 30.18 851 25.13 4.8 40.6 61 -2.1 28.2
19:50 1022 30.18 851 25.13 4.9 40.9 62 -1.8 28.7
19:55 1022 30.18 851 25.13 4.5 40.2 62 -2 28.4
20:00 1022 30.18 851 25.13 4.2 39.5 64 -2 28.3
20:05 1022 30.18 851 25.13 4 39.2 64 -2.3 27.9
20:10 1022 30.18 851 25.13 4 39.2 64 -2.3 27.9
20:15 1022 30.18 851 25.13 3.9 39 63 -2.4 27.6
20:20 1022 30.18 851 25.13 4.1 39.3 63 -2.4 27.6
20:25 1022 30.18 851 25.13 4.1 39.4 63 -2.4 27.7
20:30 1022 30.18 851 25.13 3.9 39 64 -2.4 27.7
20:35 1022 30.18 851 25.13 4 39.1 62 -2.6 27.4
20:40 1022 30.18 851 25.13 4 39.1 63 -2.4 27.6
20:45 1022 30.18 851 25.13 3.7 38.7 64 -2.4 27.7
20:50 1022 30.18 851 25.13 3.7 38.6 64 -2.5 27.5
20:55 1022 30.18 851 25.13 3.9 38.9 63 -2.6 27.4
21:00 1022 30.18 851 25.13 3.8 38.9 63 -2.6 27.3
21:05 1022 30.18 851 25.13 3.8 38.8 63 -2.5 27.4
21:10 1022 30.18 851 25.13 3.6 38.5 64 -2.6 27.3
21:15 1022 30.18 851 25.13 3.7 38.6 63 -2.7 27.1
21:20 1022 30.18 851 25.13 3.7 38.6 63 -2.6 27.3
21:25 1022 30.18 851 25.13 3.6 38.5 63 -2.8 27
21:30 1022 30.18 851 25.13 3.7 38.7 63 -2.8 27
21:35 1022 30.18 851 25.13 3.5 38.3 64 -2.6 27.3
21:40 1022 30.18 851 25.13 3.2 37.7 65 -2.7 27.1
21:45 1022 30.18 851 25.13 3 37.3 66 -2.9 26.9
21:50 1022 30.18 851 25.13 3.1 37.5 65 -2.9 26.8
21:55 1022 30.18 851 25.13 3.3 37.9 64 -2.8 27
22:00 1022 30.18 851 25.13 3.2 37.7 65 -2.8 27
22:05 1022 30.18 851 25.13 3 37.4 65 -2.9 26.8
22:10 1022 30.18 851 25.13 2.9 37.2 66 -2.9 26.7
22:15 1022 30.18 851 25.13 2.7 36.9 66 -3.1 26.5
22:20 1022 30.18 851 25.13 2.8 37 66 -3.1 26.5
22:25 1022 30.18 851 25.13 2.9 37.2 64 -3.2 26.2
22:30 1022 30.18 851 25.13 3.1 37.6 63 -3.2 26.3
22:35 1022 30.18 851 25.13 3.2 37.7 63 -3.1 26.4
22:40 1022 30.18 851 25.13 3.1 37.5 64 -3.2 26.3
22:45 1022 30.18 851 25.13 2.9 37.2 64 -3.3 26.1
22:50 1022 30.18 851 25.13 3 37.3 64 -3.2 26.2
22:55 1022 30.18 851 25.13 3 37.3 64 -3.2 26.2
23:00 1022 30.18 851 25.13 2.9 37.2 64 -3.4 26
23:05 1022 30.18 851 25.13 2.8 37 64 -3.4 25.9
23:10 1022 30.18 851 25.13 2.8 37 64 -3.4 25.8
23:15 1022 30.18 851 25.13 2.8 37 63 -3.5 25.7
23:20 1022 30.18 851 25.13 2.9 37.3 62 -3.6 25.6
23:25 1022 30.18 851 25.13 3.1 37.6 61 -3.7 25.4
23:30 1022 30.18 851 25.13 3.2 37.7 60 -3.8 25.2
23:35 1022 30.18 851 25.13 3.6 38.5 59 -3.6 25.5
23:40 1022 30.18 851 25.13 3.8 38.9 58 -3.7 25.3
23:45 1022 30.18 851 25.13 3.9 39.1 57 -3.9 24.9
23:50 1022 30.18 851 25.13 4.4 39.9 55 -3.8 25.2
23:55 1022 30.18 851 25.13 4.2 39.6 56 -3.8 25.2
24:00 1022 30.18 851 25.13 4.1 39.4 56 -3.8 25.2